createdAt,value
2023-01-20T00:00:17.486Z,1002.32
2023-01-20T00:03:24.930Z,1002.33
2023-01-20T00:06:32.510Z,1002.42
2023-01-20T00:09:39.783Z,1002.36
2023-01-20T00:12:46.986Z,1002.45
2023-01-20T00:15:54.455Z,1002.42
2023-01-20T00:19:01.667Z,1002.47
2023-01-20T00:22:08.793Z,1002.48
2023-01-20T00:25:16.592Z,1002.57
2023-01-20T00:28:24.006Z,1002.57
2023-01-20T00:31:31.340Z,1002.61
2023-01-20T00:34:38.224Z,1002.57
2023-01-20T00:37:45.266Z,1002.64
2023-01-20T00:40:52.369Z,1002.68
2023-01-20T00:43:59.363Z,1002.67
2023-01-20T00:47:06.484Z,1002.73
2023-01-20T00:50:13.429Z,1002.78
2023-01-20T00:53:20.486Z,1002.80
2023-01-20T00:56:27.559Z,1002.79
2023-01-20T00:59:34.555Z,1002.83
2023-01-20T01:02:41.897Z,1002.87
2023-01-20T01:05:48.935Z,1002.88
2023-01-20T01:08:56.004Z,1002.91
2023-01-20T01:12:03.486Z,1002.93
2023-01-20T01:15:10.274Z,1002.96
2023-01-20T01:18:17.490Z,1002.97
2023-01-20T01:21:24.660Z,1003.00
2023-01-20T01:24:32.200Z,1003.08
2023-01-20T01:27:39.029Z,1003.03
2023-01-20T01:30:46.095Z,1003.01
2023-01-20T01:33:53.422Z,1003.04
2023-01-20T01:37:00.113Z,1003.01
2023-01-20T01:40:07.564Z,1003.02
2023-01-20T01:43:15.009Z,1003.13
2023-01-20T01:46:21.699Z,1003.11
2023-01-20T01:49:29.066Z,1003.18
2023-01-20T01:52:36.046Z,1003.16
2023-01-20T01:55:43.017Z,1003.17
2023-01-20T01:58:50.312Z,1003.21
2023-01-20T02:01:57.661Z,1003.17
2023-01-20T02:05:04.460Z,1003.18
2023-01-20T02:08:11.599Z,1003.15
2023-01-20T02:11:18.765Z,1003.24
2023-01-20T02:14:25.853Z,1003.25
2023-01-20T02:17:32.461Z,1003.36
2023-01-20T02:20:39.589Z,1003.34
2023-01-20T02:23:46.856Z,1003.40
2023-01-20T02:26:53.681Z,1003.42
2023-01-20T02:30:01.017Z,1003.48
2023-01-20T02:33:07.897Z,1003.51
2023-01-20T02:36:15.637Z,1003.64
2023-01-20T02:39:26.945Z,1003.64
2023-01-20T02:42:23.720Z,1003.60
2023-01-20T02:45:31.061Z,1003.60
2023-01-20T02:48:38.583Z,1003.64
2023-01-20T02:51:45.337Z,1003.66
2023-01-20T02:54:52.856Z,1003.76
2023-01-20T02:57:59.537Z,1003.74
2023-01-20T03:01:06.552Z,1003.76
2023-01-20T03:04:14.179Z,1003.81
2023-01-20T03:07:21.102Z,1003.83
2023-01-20T03:10:28.220Z,1003.89
2023-01-20T03:13:35.549Z,1003.91
2023-01-20T03:16:43.215Z,1003.96
2023-01-20T03:19:50.360Z,1003.97
2023-01-20T03:22:57.442Z,1004.03
2023-01-20T03:26:04.806Z,1004.04
2023-01-20T03:29:11.680Z,1004.05
2023-01-20T03:32:19.232Z,1004.16
2023-01-20T03:35:26.778Z,1004.21
2023-01-20T03:38:33.449Z,1004.26
2023-01-20T03:41:40.949Z,1004.22
2023-01-20T03:44:48.493Z,1004.25
2023-01-20T03:47:55.382Z,1004.27
2023-01-20T03:51:02.283Z,1004.31
2023-01-20T03:54:09.223Z,1004.40
2023-01-20T03:57:16.641Z,1004.33
2023-01-20T04:00:23.521Z,1004.35
2023-01-20T04:03:30.891Z,1004.34
2023-01-20T04:06:38.527Z,1004.35
2023-01-20T04:09:45.323Z,1004.52
2023-01-20T04:12:52.962Z,1004.53
2023-01-20T04:16:00.489Z,1004.54
2023-01-20T04:19:07.072Z,1004.57
2023-01-20T04:22:14.415Z,1004.56
2023-01-20T04:25:21.330Z,1004.60
2023-01-20T04:28:28.299Z,1004.66
2023-01-20T04:31:35.606Z,1004.65
2023-01-20T04:34:42.822Z,1004.67
2023-01-20T04:37:50.043Z,1004.67
2023-01-20T04:40:57.563Z,1004.69
2023-01-20T04:44:04.461Z,1004.72
2023-01-20T04:47:11.322Z,1004.80
2023-01-20T04:50:18.302Z,1004.82
2023-01-20T04:53:25.713Z,1004.89
2023-01-20T04:56:32.617Z,1004.93
2023-01-20T04:59:39.652Z,1005.00
2023-01-20T05:02:47.089Z,1004.99
2023-01-20T05:05:53.705Z,1004.96
2023-01-20T05:09:01.228Z,1004.97
2023-01-20T05:12:08.882Z,1005.05
2023-01-20T05:15:15.898Z,1005.03
2023-01-20T05:18:23.421Z,1005.09
2023-01-20T05:21:30.634Z,1005.13
2023-01-20T05:24:37.814Z,1005.13
2023-01-20T05:27:44.812Z,1005.17
2023-01-20T05:30:51.977Z,1005.24
2023-01-20T05:33:59.027Z,1005.29
2023-01-20T05:37:06.120Z,1005.25
2023-01-20T05:40:13.587Z,1005.35
2023-01-20T05:43:20.744Z,1005.35
2023-01-20T05:46:28.212Z,1005.38
2023-01-20T05:49:35.493Z,1005.44
2023-01-20T05:52:42.455Z,1005.46
2023-01-20T05:55:49.271Z,1005.47
2023-01-20T05:58:56.500Z,1005.49
2023-01-20T06:02:03.210Z,1005.62
2023-01-20T06:05:10.770Z,1005.64
2023-01-20T06:08:18.623Z,1005.66
2023-01-20T06:11:25.433Z,1005.69
2023-01-20T06:14:33.272Z,1005.75
2023-01-20T06:17:40.404Z,1005.78
2023-01-20T06:20:47.735Z,1005.79
2023-01-20T06:23:55.201Z,1005.83
2023-01-20T06:27:02.419Z,1005.87
2023-01-20T06:30:09.599Z,1005.86
2023-01-20T06:33:16.896Z,1005.99
2023-01-20T06:36:24.616Z,1005.93
2023-01-20T06:39:32.153Z,1005.92
2023-01-20T06:42:38.936Z,1005.92
2023-01-20T06:45:46.258Z,1005.98
2023-01-20T06:48:53.714Z,1005.95
2023-01-20T06:52:00.918Z,1005.96
2023-01-20T06:55:08.038Z,1006.01
2023-01-20T06:58:15.882Z,1006.11
2023-01-20T07:01:22.867Z,1006.06
2023-01-20T07:04:30.293Z,1006.12
2023-01-20T07:07:37.851Z,1006.15
2023-01-20T07:10:45.163Z,1006.18
2023-01-20T07:13:52.731Z,1006.23
2023-01-20T07:16:59.977Z,1006.25
2023-01-20T07:20:07.103Z,1006.35
2023-01-20T07:23:14.804Z,1006.42
2023-01-20T07:26:21.913Z,1006.43
2023-01-20T07:29:29.301Z,1006.50
2023-01-20T07:32:36.253Z,1006.55
2023-01-20T07:35:43.799Z,1006.62
2023-01-20T07:38:50.929Z,1006.67
2023-01-20T07:41:57.795Z,1006.70
2023-01-20T07:45:05.177Z,1006.81
2023-01-20T07:48:11.931Z,1006.86
2023-01-20T07:51:19.304Z,1006.84
2023-01-20T07:54:26.816Z,1007.04
2023-01-20T07:57:33.760Z,1007.10
2023-01-20T08:00:41.194Z,1007.12
2023-01-20T08:03:48.329Z,1007.19
2023-01-20T08:06:55.723Z,1007.23
2023-01-20T08:10:02.961Z,1007.18
2023-01-20T08:13:09.841Z,1007.22
2023-01-20T08:16:17.199Z,1007.37
2023-01-20T08:19:24.761Z,1007.37
2023-01-20T08:22:31.963Z,1007.40
2023-01-20T08:25:39.191Z,1007.44
2023-01-20T08:28:46.190Z,1007.48
2023-01-20T08:31:54.005Z,1007.53
2023-01-20T08:35:01.193Z,1007.56
2023-01-20T08:38:08.232Z,1007.55
2023-01-20T08:41:15.740Z,1007.64
2023-01-20T08:44:22.806Z,1007.65
2023-01-20T08:47:29.452Z,1007.71
2023-01-20T08:50:37.392Z,1007.70
2023-01-20T08:53:45.029Z,1007.77
2023-01-20T08:56:52.251Z,1007.83
2023-01-20T08:59:59.679Z,1007.83
2023-01-20T09:03:06.630Z,1007.88
2023-01-20T09:06:14.318Z,1007.82
2023-01-20T09:09:21.662Z,1007.75
2023-01-20T09:12:28.629Z,1007.83
2023-01-20T09:15:35.902Z,1007.93
2023-01-20T09:18:43.445Z,1007.93
2023-01-20T09:21:50.589Z,1007.97
2023-01-20T09:24:58.249Z,1007.98
2023-01-20T09:28:06.681Z,1008.02
2023-01-20T09:31:14.035Z,1008.02
2023-01-20T09:34:21.246Z,1008.04
2023-01-20T09:37:28.259Z,1007.99
2023-01-20T09:40:36.047Z,1008.07
2023-01-20T09:43:42.949Z,1008.10
2023-01-20T09:46:50.469Z,1008.15
2023-01-20T09:49:57.884Z,1008.09
2023-01-20T09:53:04.715Z,1008.12
2023-01-20T09:56:12.292Z,1008.14
2023-01-20T09:59:19.708Z,1008.20
2023-01-20T10:02:27.561Z,1008.25
2023-01-20T10:05:34.850Z,1008.25
2023-01-20T10:08:45.949Z,1008.29
2023-01-20T10:11:46.481Z,1008.32
2023-01-20T10:14:55.469Z,1008.33
2023-01-20T10:18:02.711Z,1008.39
2023-01-20T10:21:10.005Z,1008.41
2023-01-20T10:24:17.749Z,1008.41
2023-01-20T10:27:25.193Z,1008.45
2023-01-20T10:30:32.487Z,1008.44
2023-01-20T10:33:39.819Z,1008.43
2023-01-20T10:36:47.165Z,1008.45
2023-01-20T10:39:54.218Z,1008.42
2023-01-20T10:43:01.343Z,1008.46
2023-01-20T10:46:10.909Z,1008.45
2023-01-20T10:49:19.329Z,1008.44
2023-01-20T10:52:26.497Z,1008.50
2023-01-20T10:55:34.005Z,1008.46
2023-01-20T10:58:41.154Z,1008.54
2023-01-20T11:01:51.897Z,1008.50
2023-01-20T11:04:52.148Z,1008.53
2023-01-20T11:07:59.817Z,1008.56
2023-01-20T11:11:06.997Z,1008.64
2023-01-20T11:14:14.140Z,1008.70
2023-01-20T11:17:21.586Z,1008.70
2023-01-20T11:20:28.397Z,1008.68
2023-01-20T11:23:36.087Z,1008.73
2023-01-20T11:26:43.990Z,1008.81
2023-01-20T11:29:50.723Z,1008.87
2023-01-20T11:32:58.180Z,1008.89
2023-01-20T11:36:05.649Z,1008.91
2023-01-20T11:39:12.431Z,1008.90
2023-01-20T11:42:19.945Z,1008.90
2023-01-20T11:45:27.006Z,1008.89
2023-01-20T11:48:33.931Z,1008.90
2023-01-20T11:51:41.144Z,1008.95
2023-01-20T11:54:47.984Z,1008.91
2023-01-20T11:57:55.008Z,1008.96
2023-01-20T12:01:02.769Z,1008.98
2023-01-20T12:04:09.860Z,1008.98
2023-01-20T12:07:17.106Z,1009.00
2023-01-20T12:10:24.101Z,1009.03
2023-01-20T12:13:31.312Z,1009.03
2023-01-20T12:16:38.162Z,1009.02
2023-01-20T12:19:45.074Z,1009.11
2023-01-20T12:22:52.695Z,1009.05
2023-01-20T12:25:59.657Z,1009.16
2023-01-20T12:29:06.769Z,1009.18
2023-01-20T12:32:14.407Z,1009.17
2023-01-20T12:35:21.209Z,1009.15
2023-01-20T12:38:28.821Z,1009.14
2023-01-20T12:41:35.930Z,1009.21
2023-01-20T12:44:42.754Z,1009.27
2023-01-20T12:47:50.159Z,1009.31
2023-01-20T12:50:57.510Z,1009.36
2023-01-20T12:54:04.171Z,1009.38
2023-01-20T12:57:11.491Z,1009.45
2023-01-20T13:00:19.211Z,1009.45
2023-01-20T13:03:26.349Z,1009.48
2023-01-20T13:06:33.842Z,1009.47
2023-01-20T13:09:40.859Z,1009.51
2023-01-20T13:12:47.980Z,1009.48
2023-01-20T13:15:55.130Z,1009.49
2023-01-20T13:19:02.770Z,1009.45
2023-01-20T13:22:09.582Z,1009.49
2023-01-20T13:25:17.495Z,1009.62
2023-01-20T13:28:25.142Z,1009.60
2023-01-20T13:31:32.241Z,1009.56
2023-01-20T13:34:39.737Z,1009.59
2023-01-20T13:37:47.405Z,1009.66
2023-01-20T13:40:54.203Z,1009.68
2023-01-20T13:44:01.558Z,1009.77
2023-01-20T13:47:08.902Z,1009.75
2023-01-20T13:50:16.255Z,1009.77
2023-01-20T13:53:23.955Z,1009.86
2023-01-20T13:56:31.117Z,1009.97
2023-01-20T13:59:38.390Z,1009.99
2023-01-20T14:02:45.547Z,1009.99
2023-01-20T14:05:53.379Z,1010.04
2023-01-20T14:09:00.765Z,1010.08
2023-01-20T14:12:07.999Z,1010.05
2023-01-20T14:15:15.578Z,1010.06
2023-01-20T14:18:22.798Z,1010.08
2023-01-20T14:21:30.041Z,1010.14
2023-01-20T14:24:37.343Z,1010.17
2023-01-20T14:27:44.270Z,1010.23
2023-01-20T14:30:51.805Z,1010.27
2023-01-20T14:33:59.362Z,1010.30
2023-01-20T14:37:06.107Z,1010.38
2023-01-20T14:40:13.491Z,1010.47
2023-01-20T14:43:20.901Z,1010.47
2023-01-20T14:46:27.954Z,1010.50
2023-01-20T14:49:35.425Z,1010.49
2023-01-20T14:52:42.702Z,1010.55
2023-01-20T14:55:50.697Z,1010.58
2023-01-20T14:58:57.898Z,1010.58
2023-01-20T15:02:04.937Z,1010.70
2023-01-20T15:05:12.624Z,1010.75
2023-01-20T15:08:21.058Z,1010.81
2023-01-20T15:11:28.192Z,1010.86
2023-01-20T15:14:35.721Z,1010.93
2023-01-20T15:17:42.653Z,1010.92
2023-01-20T15:20:49.851Z,1010.97
2023-01-20T15:23:57.181Z,1011.04
2023-01-20T15:27:03.819Z,1011.19
2023-01-20T15:30:12.862Z,1011.19
2023-01-20T15:33:20.891Z,1011.30
2023-01-20T15:36:27.688Z,1011.42
2023-01-20T15:39:35.042Z,1011.45
2023-01-20T15:42:41.899Z,1011.57
2023-01-20T15:45:48.838Z,1011.59
2023-01-20T15:48:56.238Z,1011.60
2023-01-20T15:52:03.500Z,1011.70
2023-01-20T15:55:10.595Z,1011.78
2023-01-20T15:58:17.995Z,1011.87
2023-01-20T16:01:25.090Z,1011.83
2023-01-20T16:04:32.130Z,1011.99
2023-01-20T16:07:39.141Z,1012.02
2023-01-20T16:10:46.308Z,1012.00
2023-01-20T16:13:53.793Z,1012.01
2023-01-20T16:17:00.520Z,1012.07
2023-01-20T16:20:08.493Z,1012.16
2023-01-20T16:23:15.882Z,1012.18
2023-01-20T16:26:22.834Z,1012.18
2023-01-20T16:29:30.635Z,1012.30
2023-01-20T16:32:38.734Z,1012.35
2023-01-20T16:35:45.969Z,1012.37
2023-01-20T16:38:53.397Z,1012.47
2023-01-20T16:42:00.046Z,1012.52
2023-01-20T16:45:07.356Z,1012.62
2023-01-20T16:48:15.039Z,1012.62
2023-01-20T16:51:21.776Z,1012.62
2023-01-20T16:54:29.285Z,1012.67
2023-01-20T16:57:36.398Z,1012.84
2023-01-20T17:00:43.568Z,1012.84
2023-01-20T17:03:51.219Z,1012.86
2023-01-20T17:07:00.768Z,1012.88
2023-01-20T17:10:08.025Z,1012.84
2023-01-20T17:13:15.352Z,1012.94
2023-01-20T17:16:22.565Z,1012.94
2023-01-20T17:19:30.358Z,1012.98
2023-01-20T17:22:38.355Z,1012.97
2023-01-20T17:25:45.621Z,1013.01
2023-01-20T17:28:52.949Z,1013.10
2023-01-20T17:32:00.911Z,1013.14
2023-01-20T17:35:08.775Z,1013.11
2023-01-20T17:38:15.974Z,1013.17
2023-01-20T17:41:24.088Z,1013.19
2023-01-20T17:44:31.540Z,1013.24
2023-01-20T17:47:38.798Z,1013.36
2023-01-20T17:50:46.090Z,1013.43
2023-01-20T17:53:53.168Z,1013.45
2023-01-20T17:57:00.119Z,1013.56
2023-01-20T18:00:07.728Z,1013.51
2023-01-20T18:03:15.498Z,1013.62
2023-01-20T18:06:22.415Z,1013.68
2023-01-20T18:09:30.107Z,1013.77
2023-01-20T18:12:38.088Z,1013.82
2023-01-20T18:15:45.187Z,1013.84
2023-01-20T18:18:52.744Z,1013.89
2023-01-20T18:22:01.049Z,1013.90
2023-01-20T18:25:07.973Z,1013.95
2023-01-20T18:28:16.159Z,1013.99
2023-01-20T18:31:24.638Z,1014.01
2023-01-20T18:34:33.826Z,1014.13
2023-01-20T18:37:42.273Z,1014.13
2023-01-20T18:40:49.834Z,1014.19
2023-01-20T18:43:57.229Z,1014.21
2023-01-20T18:47:04.505Z,1014.35
2023-01-20T18:50:11.571Z,1014.37
2023-01-20T18:53:20.203Z,1014.41
2023-01-20T18:56:27.193Z,1014.46
2023-01-20T18:59:34.354Z,1014.43
2023-01-20T19:02:41.666Z,1014.52
2023-01-20T19:05:48.974Z,1014.50
2023-01-20T19:08:56.715Z,1014.53
2023-01-20T19:12:04.193Z,1014.54
2023-01-20T19:15:11.165Z,1014.58
2023-01-20T19:18:18.610Z,1014.66
2023-01-20T19:21:26.805Z,1014.64
2023-01-20T19:24:34.324Z,1014.62
2023-01-20T19:27:42.110Z,1014.65
2023-01-20T19:30:49.238Z,1014.71
2023-01-20T19:33:56.967Z,1014.75
2023-01-20T19:37:04.524Z,1014.85
2023-01-20T19:40:11.642Z,1014.84
2023-01-20T19:43:19.611Z,1014.79
2023-01-20T19:46:28.693Z,1014.87
2023-01-20T19:49:36.448Z,1014.92
2023-01-20T19:52:43.914Z,1014.89
2023-01-20T19:55:51.136Z,1014.92
2023-01-20T19:58:58.379Z,1014.91
2023-01-20T20:02:05.649Z,1014.99
2023-01-20T20:05:12.961Z,1015.11
2023-01-20T20:08:20.669Z,1015.09
2023-01-20T20:11:27.947Z,1015.18
2023-01-20T20:14:35.140Z,1015.21
2023-01-20T20:17:43.414Z,1015.21
2023-01-20T20:20:50.625Z,1015.23
2023-01-20T20:23:58.343Z,1015.25
2023-01-20T20:27:06.701Z,1015.32
2023-01-20T20:30:14.567Z,1015.33
2023-01-20T20:33:22.201Z,1015.44
2023-01-20T20:36:29.681Z,1015.51
2023-01-20T20:39:36.420Z,1015.58
2023-01-20T20:42:43.975Z,1015.57
2023-01-20T20:45:50.768Z,1015.60
2023-01-20T20:48:59.058Z,1015.61
2023-01-20T20:52:06.660Z,1015.65
2023-01-20T20:55:13.568Z,1015.67
2023-01-20T20:58:20.478Z,1015.78
2023-01-20T21:01:28.079Z,1015.83
2023-01-20T21:04:35.177Z,1015.80
2023-01-20T21:07:42.199Z,1015.89
2023-01-20T21:10:49.217Z,1015.86
2023-01-20T21:13:56.281Z,1015.88
2023-01-20T21:17:03.327Z,1015.87
2023-01-20T21:20:10.173Z,1016.00
2023-01-20T21:23:17.407Z,1015.93
2023-01-20T21:26:24.116Z,1015.99
2023-01-20T21:29:31.356Z,1016.01
2023-01-20T21:32:38.738Z,1016.10
2023-01-20T21:35:45.350Z,1016.16
2023-01-20T21:38:52.603Z,1016.23
2023-01-20T21:41:59.769Z,1016.25
2023-01-20T21:45:06.549Z,1016.28
2023-01-20T21:48:13.796Z,1016.28
2023-01-20T21:51:21.016Z,1016.34
2023-01-20T21:54:28.066Z,1016.42
2023-01-20T21:57:35.072Z,1016.45
2023-01-20T22:00:42.228Z,1016.48
2023-01-20T22:03:49.269Z,1016.56
2023-01-20T22:06:56.814Z,1016.55
2023-01-20T22:10:04.082Z,1016.69
2023-01-20T22:13:11.150Z,1016.70
2023-01-20T22:16:18.262Z,1016.79
2023-01-20T22:19:25.534Z,1016.78
2023-01-20T22:22:32.691Z,1016.87
2023-01-20T22:25:39.709Z,1016.87
2023-01-20T22:28:47.058Z,1016.83
2023-01-20T22:31:54.453Z,1016.87
2023-01-20T22:35:01.452Z,1016.84
2023-01-20T22:38:08.882Z,1016.92
2023-01-20T22:41:15.693Z,1016.90
2023-01-20T22:44:23.233Z,1016.93
2023-01-20T22:47:30.928Z,1016.99
2023-01-20T22:50:38.057Z,1016.93
2023-01-20T22:53:45.198Z,1017.01
2023-01-20T22:56:52.553Z,1017.08
2023-01-20T22:59:59.691Z,1017.07
2023-01-20T23:03:06.692Z,1017.08
2023-01-20T23:06:13.708Z,1017.20
2023-01-20T23:09:21.160Z,1017.18
2023-01-20T23:12:28.224Z,1017.22
2023-01-20T23:15:35.462Z,1017.30
2023-01-20T23:18:42.674Z,1017.28
2023-01-20T23:21:49.295Z,1017.28
2023-01-20T23:24:57.064Z,1017.27
2023-01-20T23:28:04.212Z,1017.30
2023-01-20T23:31:11.049Z,1017.37
2023-01-20T23:34:18.688Z,1017.42
2023-01-20T23:37:26.184Z,1017.39
2023-01-20T23:40:32.996Z,1017.40
2023-01-20T23:43:40.605Z,1017.43
2023-01-20T23:46:47.691Z,1017.47
2023-01-20T23:49:54.490Z,1017.44
2023-01-20T23:53:01.941Z,1017.60
2023-01-20T23:56:08.936Z,1017.66
2023-01-20T23:59:16.269Z,1017.66
